Time;durP1;ratioP1;P1;durP2;ratioP2;P2;SDS_P1;SDS_P2;PMS_P1;PMS_P2;Temp;Humidity;BMP_temperature;BMP_pressure;BME280_temperature;BME280_humidity;BME280_pressure;Samples;Min_cycle;Max_cycle;Signal;HPM_P1;HPM_P2
2023/04/06 00:01:58;;;;;;;;;;;;;;;4.00;59.77;94962.75;4956081;29;1025;-51
2023/04/06 00:04:24;;;;;;;;;;;;;;;4.09;59.50;94958.50;4955720;29;1093;-52
2023/04/06 00:06:50;;;;;;;;;;;;;;;4.09;59.24;94958.50;4955887;29;978;-51
2023/04/06 00:09:16;;;;;;;;;;;;;;;4.02;59.32;94960.84;4945243;29;1194;-51
2023/04/06 00:11:42;;;;;;;;;;;;;;;3.97;59.80;94955.09;4936486;29;1973;-51
2023/04/06 00:14:08;;;;;;;;;;;;;;;3.87;59.97;94947.06;4936758;29;1037;-51
2023/04/06 00:16:34;;;;;;;;;;;;;;;3.88;60.06;94953.19;4936289;29;1047;-51
2023/04/06 00:19:00;;;;;;;;;;;;;;;3.88;60.00;94948.72;4936399;29;1989;-51
2023/04/06 00:21:26;;;;;;;;;;;;;;;3.96;59.01;94948.09;4936612;29;1043;-51
2023/04/06 00:23:52;;;;;;;;;;;;;;;4.07;59.10;94944.56;4936351;29;1451;-51
2023/04/06 00:26:18;;;;;;;;;;;;;;;4.09;58.54;94938.19;4936496;29;1023;-51
2023/04/06 00:28:45;;;;;;;;;;;;;;;4.02;58.68;94934.38;4936347;29;1019;-51
2023/04/06 00:31:11;;;;;;;;;;;;;;;3.78;60.16;94936.41;4936348;29;1050;-51
2023/04/06 00:33:37;;;;;;;;;;;;;;;3.69;60.66;94928.22;4936507;29;975;-51
2023/04/06 00:36:03;;;;;;;;;;;;;;;3.72;61.01;94935.09;4935479;29;1007;-51
2023/04/06 00:38:29;;;;;;;;;;;;;;;3.76;60.63;94935.69;4936087;29;1915;-51
2023/04/06 00:40:55;;;;;;;;;;;;;;;3.79;60.71;94935.41;4936159;29;1047;-51
2023/04/06 00:43:21;;;;;;;;;;;;;;;3.82;59.10;94925.44;4936357;29;1070;-51
2023/04/06 00:45:48;;;;;;;;;;;;;;;3.88;59.88;94934.66;4936302;29;1132;-51
2023/04/06 00:48:14;;;;;;;;;;;;;;;3.98;59.47;94930.28;4936297;29;975;-51
2023/04/06 00:50:40;;;;;;;;;;;;;;;3.96;59.10;94926.09;4936006;29;1270;-52
2023/04/06 00:53:06;;;;;;;;;;;;;;;3.92;60.02;94926.34;4936378;29;1070;-51
2023/04/06 00:55:32;;;;;;;;;;;;;;;3.76;60.85;94925.09;4936187;29;1329;-51
2023/04/06 00:57:58;;;;;;;;;;;;;;;3.60;60.93;94918.41;4936155;29;1060;-51
2023/04/06 01:00:25;;;;;;;;;;;;;;;3.64;62.03;94925.13;4935911;29;1906;-51
2023/04/06 01:02:52;;;;;;;;;;;;;;;3.64;61.38;94922.50;4936095;29;983;-51
2023/04/06 01:05:18;;;;;;;;;;;;;;;3.67;62.49;94918.75;4936094;29;1042;-51
2023/04/06 01:07:44;;;;;;;;;;;;;;;3.78;61.90;94913.44;4935926;29;974;-51
2023/04/06 01:10:10;;;;;;;;;;;;;;;3.75;62.37;94918.13;4953881;29;1138;-51
2023/04/06 01:12:38;;;;;;;;;;;;;;;3.81;61.85;94907.03;4954961;29;1895;-51
2023/04/06 01:15:06;;;;;;;;;;;;;;;3.95;62.29;94905.94;4955183;29;1014;-51
2023/04/06 01:17:32;;;;;;;;;;;;;;;3.88;62.07;94913.50;4954877;29;1197;-51
2023/04/06 01:19:58;;;;;;;;;;;;;;;3.82;62.99;94908.72;4954851;29;1906;-51
2023/04/06 01:22:24;;;;;;;;;;;;;;;3.76;62.74;94907.44;4954944;29;1030;-51
2023/04/06 01:24:50;;;;;;;;;;;;;;;3.69;63.03;94915.00;4955123;29;956;-51
2023/04/06 01:27:16;;;;;;;;;;;;;;;3.68;63.34;94902.75;4955059;29;1179;-51
2023/04/06 01:29:42;;;;;;;;;;;;;;;3.74;63.23;94905.84;4954774;29;1059;-51
2023/04/06 01:32:09;;;;;;;;;;;;;;;3.63;63.84;94902.28;4954958;29;1043;-51
2023/04/06 01:34:35;;;;;;;;;;;;;;;3.48;66.19;94901.72;4954999;29;1034;-51
2023/04/06 01:37:01;;;;;;;;;;;;;;;3.39;70.92;94905.09;4955040;29;1042;-51
2023/04/06 01:39:27;;;;;;;;;;;;;;;3.35;71.17;94906.31;4954904;29;2052;-51
2023/04/06 01:41:53;;;;;;;;;;;;;;;3.24;72.75;94899.25;4955024;29;1252;-51
2023/04/06 01:44:20;;;;;;;;;;;;;;;3.26;73.59;94894.72;4954903;29;1014;-51
2023/04/06 01:46:46;;;;;;;;;;;;;;;3.19;73.91;94895.28;4955643;28;994;-51
2023/04/06 01:49:12;;;;;;;;;;;;;;;3.30;73.27;94890.00;4958510;29;1037;-51
2023/04/06 01:51:38;;;;;;;;;;;;;;;3.32;73.62;94896.03;4958068;29;1098;-51
2023/04/06 01:54:04;;;;;;;;;;;;;;;3.24;74.55;94888.69;4958305;29;1013;-51
2023/04/06 01:56:30;;;;;;;;;;;;;;;3.16;75.25;94893.75;4958370;29;1297;-52
2023/04/06 01:58:56;;;;;;;;;;;;;;;3.12;76.08;94890.50;4958166;29;1989;-51
2023/04/06 02:01:22;;;;;;;;;;;;;;;3.12;75.80;94887.03;4958138;29;1002;-51
2023/04/06 02:03:49;;;;;;;;;;;;;;;3.13;75.67;94876.34;4941108;29;1301;-51
2023/04/06 02:06:15;;;;;;;;;;;;;;;3.22;74.55;94884.50;4958211;29;1048;-51
2023/04/06 02:08:41;;;;;;;;;;;;;;;3.15;75.56;94886.78;4951938;29;1145;-51
2023/04/06 02:11:07;;;;;;;;;;;;;;;3.16;75.32;94885.00;4939036;29;988;-51
2023/04/06 02:13:33;;;;;;;;;;;;;;;3.10;75.83;94883.66;4938810;29;1051;-51
2023/04/06 02:15:59;;;;;;;;;;;;;;;3.18;75.25;94883.06;4938780;29;1055;-51
2023/04/06 02:18:25;;;;;;;;;;;;;;;3.32;74.59;94882.81;4938615;29;2343;-51
2023/04/06 02:20:51;;;;;;;;;;;;;;;3.36;74.82;94880.72;4938690;29;1269;-51
2023/04/06 02:23:17;;;;;;;;;;;;;;;3.22;74.67;94879.22;4938746;29;1051;-51
2023/04/06 02:25:43;;;;;;;;;;;;;;;3.28;74.43;94873.41;4938470;29;1030;-51
2023/04/06 02:28:10;;;;;;;;;;;;;;;3.28;74.59;94874.28;4938752;29;1042;-51
2023/04/06 02:30:36;;;;;;;;;;;;;;;3.22;74.24;94880.03;4938360;29;1183;-51
2023/04/06 02:33:02;;;;;;;;;;;;;;;3.07;74.53;94883.91;4938622;29;1036;-51
2023/04/06 02:35:29;;;;;;;;;;;;;;;3.04;74.36;94882.34;4938228;29;1027;-51
2023/04/06 02:37:55;;;;;;;;;;;;;;;3.09;73.46;94887.25;4938249;29;1044;-51
2023/04/06 02:40:21;;;;;;;;;;;;;;;3.16;73.83;94883.19;4938324;29;1919;-51
2023/04/06 02:42:47;;;;;;;;;;;;;;;3.20;73.24;94889.88;4938414;29;961;-51
2023/04/06 02:45:13;;;;;;;;;;;;;;;3.15;72.73;94884.16;4938237;29;1011;-50
2023/04/06 02:47:39;;;;;;;;;;;;;;;3.22;72.67;94885.31;4938330;29;1057;-51
2023/04/06 02:50:05;;;;;;;;;;;;;;;3.16;73.19;94891.09;4938130;29;1029;-51
2023/04/06 02:52:32;;;;;;;;;;;;;;;2.98;72.66;94885.50;4938111;29;1126;-50
2023/04/06 02:54:58;;;;;;;;;;;;;;;2.97;73.84;94893.53;4937900;29;1094;-52
2023/04/06 02:57:24;;;;;;;;;;;;;;;3.03;73.58;94893.03;4937994;29;952;-51
2023/04/06 02:59:50;;;;;;;;;;;;;;;3.06;72.90;94887.53;4937129;29;1915;-51
2023/04/06 03:02:16;;;;;;;;;;;;;;;3.10;74.06;94886.31;4937831;29;1054;-51
2023/04/06 03:04:42;;;;;;;;;;;;;;;2.99;74.68;94895.06;4938048;29;971;-51
2023/04/06 03:07:09;;;;;;;;;;;;;;;3.10;73.83;94896.88;4937797;29;1026;-51
2023/04/06 03:09:36;;;;;;;;;;;;;;;3.06;73.95;94891.00;4950613;29;1181;-51
2023/04/06 03:12:02;;;;;;;;;;;;;;;3.07;74.11;94891.81;4956755;29;1095;-51
2023/04/06 03:14:28;;;;;;;;;;;;;;;2.99;74.52;94891.59;4956824;29;1030;-51
2023/04/06 03:16:54;;;;;;;;;;;;;;;3.01;74.42;94892.31;4956979;29;1043;-51
2023/04/06 03:19:21;;;;;;;;;;;;;;;2.85;75.41;94884.78;4956549;29;1989;-51
2023/04/06 03:21:47;;;;;;;;;;;;;;;2.83;74.81;94879.63;4956548;29;1118;-51
2023/04/06 03:24:13;;;;;;;;;;;;;;;2.86;76.21;94886.44;4956718;29;1026;-51
2023/04/06 03:26:39;;;;;;;;;;;;;;;2.81;75.75;94889.47;4956454;29;1045;-51
2023/04/06 03:29:06;;;;;;;;;;;;;;;2.74;74.72;94886.44;4956471;29;1047;-50
2023/04/06 03:31:31;;;;;;;;;;;;;;;2.89;75.44;94889.69;4956528;29;990;-52
2023/04/06 03:33:59;;;;;;;;;;;;;;;3.01;74.77;94887.03;4956386;29;1078;-52
2023/04/06 03:36:26;;;;;;;;;;;;;;;3.01;74.33;94887.88;4956563;29;1244;-52
2023/04/06 03:38:53;;;;;;;;;;;;;;;3.01;72.69;94877.31;4956182;29;1910;-52
2023/04/06 03:41:19;;;;;;;;;;;;;;;3.08;73.55;94883.78;4956453;29;1133;-51
2023/04/06 03:43:45;;;;;;;;;;;;;;;3.06;72.58;94879.59;4956316;29;1003;-51
2023/04/06 03:46:11;;;;;;;;;;;;;;;3.11;72.29;94883.56;4956024;29;1027;-51
2023/04/06 03:48:37;;;;;;;;;;;;;;;3.03;71.00;94887.75;4956370;29;975;-51
2023/04/06 03:51:04;;;;;;;;;;;;;;;3.07;72.34;94889.19;4956004;29;1030;-51
2023/04/06 03:53:30;;;;;;;;;;;;;;;3.12;72.36;94885.22;4955918;29;1434;-51
2023/04/06 03:55:56;;;;;;;;;;;;;;;3.14;71.67;94885.09;4956182;29;1190;-51
2023/04/06 03:58:22;;;;;;;;;;;;;;;3.15;72.74;94878.88;4938944;29;1035;-51
2023/04/06 04:00:48;;;;;;;;;;;;;;;3.10;71.86;94883.66;4955793;29;1907;-51
2023/04/06 04:03:14;;;;;;;;;;;;;;;3.09;73.11;94884.63;4955734;29;1031;-51
2023/04/06 04:05:40;;;;;;;;;;;;;;;3.17;73.63;94889.28;4955788;29;1082;-50
2023/04/06 04:08:06;;;;;;;;;;;;;;;3.29;73.17;94883.88;4954261;29;1268;-51
2023/04/06 04:10:32;;;;;;;;;;;;;;;3.37;72.46;94885.06;4936346;29;1043;-52
2023/04/06 04:12:58;;;;;;;;;;;;;;;3.33;73.15;94884.47;4936480;29;1126;-52
2023/04/06 04:15:24;;;;;;;;;;;;;;;3.25;72.72;94876.31;4936390;29;1039;-51
2023/04/06 04:17:50;;;;;;;;;;;;;;;3.27;72.99;94880.50;4936479;29;979;-52
2023/04/06 04:20:16;;;;;;;;;;;;;;;3.28;72.37;94876.94;4936574;29;1899;-51
2023/04/06 04:22:42;;;;;;;;;;;;;;;3.39;72.50;94876.03;4936437;29;1026;-51
2023/04/06 04:25:09;;;;;;;;;;;;;;;3.37;72.03;94877.97;4936532;29;979;-52
2023/04/06 04:27:35;;;;;;;;;;;;;;;3.42;71.34;94881.09;4936377;29;1016;-53
2023/04/06 04:30:01;;;;;;;;;;;;;;;3.37;70.80;94877.13;4936582;29;1003;-53
2023/04/06 04:32:27;;;;;;;;;;;;;;;3.14;71.40;94877.19;4936097;29;1035;-52
2023/04/06 04:34:54;;;;;;;;;;;;;;;3.06;71.73;94891.00;4919460;29;1032;-52
2023/04/06 04:37:20;;;;;;;;;;;;;;;3.05;71.57;94881.38;4936341;29;995;-52
2023/04/06 04:39:46;;;;;;;;;;;;;;;3.11;71.60;94880.06;4936067;29;1994;-52
2023/04/06 04:42:12;;;;;;;;;;;;;;;2.99;72.70;94878.41;4936399;29;1036;-53
2023/04/06 04:44:38;;;;;;;;;;;;;;;2.93;72.94;94880.56;4936569;29;949;-51
2023/04/06 04:47:04;;;;;;;;;;;;;;;2.83;74.20;94884.06;4936174;29;995;-52
2023/04/06 04:49:30;;;;;;;;;;;;;;;2.45;74.39;94887.88;4935970;29;1094;-52
2023/04/06 04:51:56;;;;;;;;;;;;;;;2.23;74.92;94888.69;4935773;29;1316;-52
2023/04/06 04:54:22;;;;;;;;;;;;;;;2.14;75.10;94891.06;4936218;29;1050;-52
2023/04/06 04:56:50;;;;;;;;;;;;;;;2.13;74.97;94884.09;4936217;29;976;-52
2023/04/06 04:59:16;;;;;;;;;;;;;;;2.29;75.23;94886.41;4935925;29;1906;-52
2023/04/06 05:01:42;;;;;;;;;;;;;;;2.98;72.49;94888.13;4936214;29;1044;-52
2023/04/06 05:04:08;;;;;;;;;;;;;;;3.36;71.25;94886.00;4935922;29;1269;-52
2023/04/06 05:06:34;;;;;;;;;;;;;;;3.41;69.89;94889.13;4935775;29;1380;-52
2023/04/06 05:09:00;;;;;;;;;;;;;;;3.47;69.02;94884.22;4936052;29;1150;-52
2023/04/06 05:11:26;;;;;;;;;;;;;;;3.59;69.13;94889.47;4935949;29;1006;-52
2023/04/06 05:13:53;;;;;;;;;;;;;;;3.71;68.66;94886.63;4935802;29;975;-52
2023/04/06 05:16:19;;;;;;;;;;;;;;;4.01;67.67;94884.25;4935954;29;979;-52
2023/04/06 05:18:45;;;;;;;;;;;;;;;4.21;65.13;94887.84;4936028;29;1964;-51
2023/04/06 05:21:11;;;;;;;;;;;;;;;4.39;66.64;94888.97;4935660;29;1027;-52
2023/04/06 05:23:37;;;;;;;;;;;;;;;4.64;64.73;94884.22;4939558;29;1032;-52
2023/04/06 05:26:04;;;;;;;;;;;;;;;4.90;60.83;94889.94;4939748;29;1014;-52
2023/04/06 05:28:30;;;;;;;;;;;;;;;5.05;60.66;94887.75;4922670;29;1007;-51
2023/04/06 05:30:56;;;;;;;;;;;;;;;5.24;57.59;94889.63;4939774;29;1038;-52
2023/04/06 05:33:23;;;;;;;;;;;;;;;5.37;56.59;94892.03;4939483;29;1055;-52
2023/04/06 05:35:50;;;;;;;;;;;;;;;5.44;56.50;94888.72;4939369;29;1134;-51
2023/04/06 05:38:16;;;;;;;;;;;;;;;5.56;56.60;94881.47;4939206;29;926;-52
2023/04/06 05:40:42;;;;;;;;;;;;;;;5.63;56.70;94881.75;4939504;29;1993;-51
2023/04/06 05:43:08;;;;;;;;;;;;;;;5.95;53.94;94886.84;4939159;29;1030;-51
2023/04/06 05:45:34;;;;;;;;;;;;;;;6.05;54.58;94882.38;4939150;29;1015;-51
2023/04/06 05:48:01;;;;;;;;;;;;;;;6.11;54.00;94878.34;4939467;29;959;-51
2023/04/06 05:50:28;;;;;;;;;;;;;;;6.33;54.45;94885.16;4938844;29;1193;-51
2023/04/06 05:52:54;;;;;;;;;;;;;;;6.37;52.71;94880.38;4939422;29;976;-51
2023/04/06 05:55:20;;;;;;;;;;;;;;;6.35;52.50;94885.00;4939176;29;1022;-51
2023/04/06 05:57:46;;;;;;;;;;;;;;;6.47;51.51;94888.34;4938875;29;1122;-51
2023/04/06 06:00:13;;;;;;;;;;;;;;;6.84;50.41;94883.91;4938800;29;1942;-50
2023/04/06 06:02:39;;;;;;;;;;;;;;;7.30;49.72;94878.69;4939203;29;963;-51
2023/04/06 06:05:05;;;;;;;;;;;;;;;7.26;47.06;94895.94;4938834;29;1085;-51
2023/04/06 06:07:31;;;;;;;;;;;;;;;7.35;49.03;94884.41;4938710;29;1300;-51
2023/04/06 06:09:58;;;;;;;;;;;;;;;7.39;49.48;94879.63;4938877;29;1138;-52
2023/04/06 06:12:24;;;;;;;;;;;;;;;7.46;49.93;94872.75;4938718;29;1027;-51
2023/04/06 06:14:50;;;;;;;;;;;;;;;7.29;49.81;94878.88;4938997;29;1231;-51
2023/04/06 06:17:16;;;;;;;;;;;;;;;7.61;49.41;94868.59;4938898;29;979;-51
2023/04/06 06:19:42;;;;;;;;;;;;;;;8.30;49.31;94878.72;4938563;29;1907;-51
2023/04/06 06:22:08;;;;;;;;;;;;;;;8.07;47.10;94886.34;4938763;29;1031;-51
2023/04/06 06:24:34;;;;;;;;;;;;;;;8.10;48.57;94883.38;4938736;29;1042;-51
2023/04/06 06:27:00;;;;;;;;;;;;;;;8.17;48.90;94876.44;4938746;29;967;-51
2023/04/06 06:29:26;;;;;;;;;;;;;;;8.41;48.54;94883.81;4938673;29;1054;-51
2023/04/06 06:31:52;;;;;;;;;;;;;;;8.62;46.74;94888.84;4938683;29;984;-51
2023/04/06 06:34:18;;;;;;;;;;;;;;;8.96;47.49;94882.72;4937186;29;960;-51
2023/04/06 06:36:44;;;;;;;;;;;;;;;10.02;44.52;94897.50;4938594;29;1038;-51
2023/04/06 06:39:10;;;;;;;;;;;;;;;9.87;44.06;94897.28;4938054;29;1999;-51
2023/04/06 06:41:36;;;;;;;;;;;;;;;9.81;44.13;94892.56;4938431;29;1095;-51
2023/04/06 06:44:02;;;;;;;;;;;;;;;9.79;44.02;94887.44;4938167;29;1108;-51
2023/04/06 06:46:29;;;;;;;;;;;;;;;9.53;44.15;94896.34;4938038;29;1027;-51
2023/04/06 06:48:55;;;;;;;;;;;;;;;9.63;43.12;94898.88;4938382;29;1035;-51
2023/04/06 06:51:21;;;;;;;;;;;;;;;9.80;44.71;94896.25;4937973;29;1051;-51
2023/04/06 06:53:47;;;;;;;;;;;;;;;10.31;43.93;94897.06;4937948;29;1024;-51
2023/04/06 06:56:13;;;;;;;;;;;;;;;10.62;41.03;94899.06;4938066;29;987;-51
2023/04/06 06:58:39;;;;;;;;;;;;;;;10.76;41.42;94903.75;4937960;29;1989;-51
2023/04/06 07:01:06;;;;;;;;;;;;;;;10.96;42.36;94901.53;4937833;29;1150;-51
2023/04/06 07:03:32;;;;;;;;;;;;;;;10.77;40.02;94912.59;4938038;29;1074;-51
2023/04/06 07:05:59;;;;;;;;;;;;;;;10.76;43.19;94898.41;4937846;29;1567;-51
2023/04/06 07:08:25;;;;;;;;;;;;;;;11.57;41.14;94901.06;4941718;29;1149;-51
2023/04/06 07:10:52;;;;;;;;;;;;;;;12.01;39.96;94903.22;4956939;29;1017;-51
2023/04/06 07:13:22;;;;;;;;;;;;;;;11.49;40.76;94904.59;4956701;29;1122;-51
2023/04/06 07:15:48;;;;;;;;;;;;;;;10.94;39.93;94911.59;4957076;29;1015;-51
2023/04/06 07:18:15;;;;;;;;;;;;;;;11.37;41.40;94896.09;4956899;29;1025;-51
2023/04/06 07:20:41;;;;;;;;;;;;;;;10.74;42.46;94901.25;4956918;29;1910;-51
2023/04/06 07:23:07;;;;;;;;;;;;;;;11.06;42.11;94893.31;4956687;29;1113;-51
2023/04/06 07:25:34;;;;;;;;;;;;;;;11.53;41.32;94895.19;4956464;29;1026;-51
2023/04/06 07:28:00;;;;;;;;;;;;;;;11.67;40.25;94904.38;4956916;29;975;-51
2023/04/06 07:30:27;;;;;;;;;;;;;;;11.01;42.10;94893.84;4956490;29;955;-51
2023/04/06 07:32:55;;;;;;;;;;;;;;;10.65;41.74;94899.56;4956448;29;1096;-51
2023/04/06 07:35:22;;;;;;;;;;;;;;;11.12;41.35;94895.34;4956581;29;1042;-51
2023/04/06 07:37:48;;;;;;;;;;;;;;;11.39;40.57;94894.09;4956645;29;1282;-51
2023/04/06 07:40:14;;;;;;;;;;;;;;;12.09;41.19;94892.47;4956275;29;1991;-51
2023/04/06 07:42:40;;;;;;;;;;;;;;;11.82;40.36;94899.09;4956555;29;971;-52
2023/04/06 07:45:07;;;;;;;;;;;;;;;11.47;40.61;94891.38;4955913;28;1031;-51
2023/04/06 07:47:33;;;;;;;;;;;;;;;11.61;42.37;94892.53;4956358;29;1114;-52
2023/04/06 07:49:59;;;;;;;;;;;;;;;12.58;37.14;94897.50;4943747;29;1182;-52
2023/04/06 07:52:25;;;;;;;;;;;;;;;13.08;38.38;94906.78;4936767;29;1305;-52
2023/04/06 07:54:52;;;;;;;;;;;;;;;12.40;39.22;94902.31;4936808;29;1221;-51
2023/04/06 07:57:18;;;;;;;;;;;;;;;11.80;38.41;94899.28;4937090;29;1105;-51
2023/04/06 07:59:44;;;;;;;;;;;;;;;12.06;39.97;94900.84;4936838;29;1997;-52
2023/04/06 08:02:10;;;;;;;;;;;;;;;11.05;40.09;94900.53;4936746;29;1086;-52
2023/04/06 08:04:36;;;;;;;;;;;;;;;9.94;40.87;94898.28;4936971;29;951;-52
2023/04/06 08:07:02;;;;;;;;;;;;;;;9.66;42.07;94879.88;4937027;29;1289;-52
2023/04/06 08:09:28;;;;;;;;;;;;;;;10.33;43.04;94879.03;4948997;29;1200;-51
2023/04/06 08:11:54;;;;;;;;;;;;;;;11.06;42.48;94867.44;4955841;29;1031;-52
2023/04/06 08:14:20;;;;;;;;;;;;;;;11.79;41.35;94878.03;4955962;29;1043;-52
2023/04/06 08:16:47;;;;;;;;;;;;;;;11.78;40.17;94877.22;4955742;29;1290;-52
2023/04/06 08:19:13;;;;;;;;;;;;;;;12.37;40.46;94878.53;4955508;29;1899;-51
2023/04/06 08:21:39;;;;;;;;;;;;;;;12.95;38.14;94877.03;4955884;29;1034;-52
2023/04/06 08:24:06;;;;;;;;;;;;;;;12.91;38.07;94886.47;4955702;29;1038;-52
2023/04/06 08:26:32;;;;;;;;;;;;;;;12.42;37.66;94879.66;4955360;29;1074;-52
2023/04/06 08:28:58;;;;;;;;;;;;;;;11.77;42.37;94866.66;4955837;29;1031;-52
2023/04/06 08:31:24;;;;;;;;;;;;;;;12.45;41.03;94867.78;4955365;29;1035;-52
2023/04/06 08:33:50;;;;;;;;;;;;;;;12.94;38.81;94869.16;4955694;29;1058;-52
2023/04/06 08:36:20;;;;;;;;;;;;;;;13.32;37.18;94875.38;4955641;29;980;-52
2023/04/06 08:38:46;;;;;;;;;;;;;;;13.02;39.45;94864.56;4955296;29;1911;-52
2023/04/06 08:41:13;;;;;;;;;;;;;;;13.55;38.78;94864.53;4955355;29;1007;-52
2023/04/06 08:43:45;;;;;;;;;;;;;;;13.73;37.77;94863.28;4955603;29;1031;-52
2023/04/06 08:46:11;;;;;;;;;;;;;;;14.05;37.33;94867.41;4955452;29;1050;-52
2023/04/06 08:48:38;;;;;;;;;;;;;;;13.13;38.07;94854.38;4955525;29;969;-54
2023/04/06 08:51:04;;;;;;;;;;;;;;;12.93;39.42;94854.94;4955184;29;1088;-53
2023/04/06 08:53:31;;;;;;;;;;;;;;;12.77;39.90;94847.06;4955429;29;1049;-52
2023/04/06 08:55:57;;;;;;;;;;;;;;;12.14;38.77;94844.53;4954811;29;972;-53
2023/04/06 08:58:24;;;;;;;;;;;;;;;12.23;40.07;94845.31;4954711;29;1031;-53
2023/04/06 09:00:51;;;;;;;;;;;;;;;11.38;40.99;94835.38;4955265;29;1978;-53
2023/04/06 09:03:18;;;;;;;;;;;;;;;11.47;40.30;94832.47;4955038;29;2079;-53
2023/04/06 09:05:45;;;;;;;;;;;;;;;11.92;39.70;94838.16;4955026;29;1063;-52
2023/04/06 09:08:11;;;;;;;;;;;;;;;12.73;38.34;94833.16;4953008;29;1346;-53
2023/04/06 09:10:40;;;;;;;;;;;;;;;12.01;40.65;94829.06;4935943;29;1062;-53
2023/04/06 09:13:06;;;;;;;;;;;;;;;11.85;40.59;94823.75;4919029;29;1027;-53
2023/04/06 09:15:33;;;;;;;;;;;;;;;11.87;42.64;94816.38;4935775;29;982;-53
2023/04/06 09:17:59;;;;;;;;;;;;;;;11.87;41.16;94819.06;4935881;29;1883;-53
2023/04/06 09:20:27;;;;;;;;;;;;;;;11.43;42.09;94815.09;4935870;29;1991;-53
2023/04/06 09:22:55;;;;;;;;;;;;;;;11.01;41.33;94815.44;4918842;29;1028;-52
2023/04/06 09:25:22;;;;;;;;;;;;;;;11.02;41.36;94804.59;4935908;29;1031;-52
2023/04/06 09:27:57;;;;;;;;;;;;;;;10.99;41.51;94804.91;4935706;29;988;-52
2023/04/06 09:30:24;;;;;;;;;;;;;;;10.73;42.35;94805.97;4936056;29;999;-53
2023/04/06 09:32:52;;;;;;;;;;;;;;;10.53;43.87;94797.50;4935947;29;995;-53
2023/04/06 09:35:19;;;;;;;;;;;;;;;10.60;40.54;94796.81;4935521;29;1040;-53
2023/04/06 09:37:46;;;;;;;;;;;;;;;10.46;44.24;94785.00;4935815;29;1022;-52
2023/04/06 09:40:13;;;;;;;;;;;;;;;10.76;44.32;94783.41;4935523;29;1915;-52
2023/04/06 09:42:42;;;;;;;;;;;;;;;10.89;43.85;94786.41;4935556;29;983;-52
2023/04/06 09:45:08;;;;;;;;;;;;;;;10.92;43.90;94785.19;4935663;29;1039;-52
2023/04/06 09:47:36;;;;;;;;;;;;;;;11.08;42.40;94778.97;4935497;29;1047;-52
2023/04/06 09:50:02;;;;;;;;;;;;;;;10.99;42.55;94782.69;4935512;29;1055;-52
2023/04/06 09:53:00;;;;;;;;;;;;;;;10.72;42.14;94779.44;4913001;29;1211;-53
2023/04/06 09:55:47;;;;;;;;;;;;;;;10.54;43.60;94783.13;4897800;29;1043;-53
2023/04/06 09:58:15;;;;;;;;;;;;;;;10.14;43.31;94781.28;4897607;29;2083;-52
2023/04/06 10:00:44;;;;;;;;;;;;;;;9.95;44.21;94775.28;4897714;29;1911;-52
2023/04/06 10:03:25;;;;;;;;;;;;;;;9.87;43.54;94785.13;4897889;29;969;-52
2023/04/06 10:05:58;;;;;;;;;;;;;;;10.02;45.80;94778.13;4897911;29;1048;-52
2023/04/06 10:08:25;;;;;;;;;;;;;;;10.29;44.34;94771.59;4902675;29;1232;-52
2023/04/06 10:10:51;;;;;;;;;;;;;;;10.05;44.84;94772.44;4919982;29;996;-52
2023/04/06 10:13:18;;;;;;;;;;;;;;;9.88;44.84;94781.44;4920063;29;1048;-51
2023/04/06 10:15:44;;;;;;;;;;;;;;;9.77;44.04;94779.97;4919722;29;1107;-53
2023/04/06 10:18:11;;;;;;;;;;;;;;;9.74;44.92;94775.75;4919863;29;1019;-52
2023/04/06 10:20:43;;;;;;;;;;;;;;;9.99;43.81;94780.28;4919572;29;1911;-52
2023/04/06 10:23:15;;;;;;;;;;;;;;;10.01;44.12;94778.28;4919812;29;1019;-52
2023/04/06 10:25:54;;;;;;;;;;;;;;;9.80;43.09;94786.78;4919607;29;1020;-52
2023/04/06 10:28:20;;;;;;;;;;;;;;;9.85;43.73;94781.81;4919818;29;951;-53
2023/04/06 10:30:46;;;;;;;;;;;;;;;9.55;43.92;94781.41;4919486;29;971;-52
2023/04/06 10:33:14;;;;;;;;;;;;;;;9.58;44.69;94778.44;4919406;29;1300;-52
2023/04/06 10:35:40;;;;;;;;;;;;;;;9.61;45.47;94771.91;4919705;29;971;-52
2023/04/06 10:38:07;;;;;;;;;;;;;;;9.61;43.77;94775.41;4919264;29;1900;-52
2023/04/06 10:40:37;;;;;;;;;;;;;;;9.60;44.09;94771.09;4933840;29;1911;-52
2023/04/06 10:43:08;;;;;;;;;;;;;;;9.42;44.31;94770.38;4919251;29;1880;-52
2023/04/06 10:45:35;;;;;;;;;;;;;;;9.35;45.58;94763.03;4919161;29;994;-50
2023/04/06 10:48:12;;;;;;;;;;;;;;;9.65;45.61;94759.91;4919218;29;1518;-51
2023/04/06 10:50:40;;;;;;;;;;;;;;;9.81;45.47;94754.59;4919324;29;1051;-51
2023/04/06 10:53:06;;;;;;;;;;;;;;;9.92;44.27;94764.09;4924312;29;1110;-50
2023/04/06 10:55:32;;;;;;;;;;;;;;;9.74;45.47;94765.09;4940147;29;979;-52
2023/04/06 10:57:58;;;;;;;;;;;;;;;9.81;44.40;94759.94;4957602;29;1091;-50
2023/04/06 11:00:24;;;;;;;;;;;;;;;9.80;43.27;94762.75;4956976;29;1918;-50
2023/04/06 11:02:50;;;;;;;;;;;;;;;9.64;44.08;94758.25;4957374;29;974;-50
2023/04/06 11:05:17;;;;;;;;;;;;;;;9.48;44.51;94761.72;4957242;29;972;-50
2023/04/06 11:07:44;;;;;;;;;;;;;;;9.71;44.58;94760.09;4957015;29;1023;-50
2023/04/06 11:10:10;;;;;;;;;;;;;;;9.77;43.84;94753.25;4939257;29;1345;-50
2023/04/06 11:12:36;;;;;;;;;;;;;;;9.79;45.16;94756.59;4937673;29;1121;-50
2023/04/06 11:15:06;;;;;;;;;;;;;;;9.92;43.64;94759.59;4937657;29;1031;-51
2023/04/06 11:17:34;;;;;;;;;;;;;;;9.76;43.39;94749.72;4937740;29;1054;-51
2023/04/06 11:20:00;;;;;;;;;;;;;;;9.62;44.69;94754.88;4936835;29;2002;-51
2023/04/06 11:22:26;;;;;;;;;;;;;;;9.64;45.26;94744.91;4937575;29;928;-53
2023/04/06 11:24:52;;;;;;;;;;;;;;;9.44;44.88;94741.69;4937412;29;1199;-51
2023/04/06 11:27:20;;;;;;;;;;;;;;;9.32;46.18;94746.50;4937646;29;1058;-51
2023/04/06 11:29:46;;;;;;;;;;;;;;;9.26;46.54;94748.00;4937689;29;971;-51
2023/04/06 11:32:19;;;;;;;;;;;;;;;8.98;46.38;94747.41;4937555;29;1068;-51
2023/04/06 11:34:46;;;;;;;;;;;;;;;9.04;46.68;94745.94;4937481;29;977;-51
2023/04/06 11:37:12;;;;;;;;;;;;;;;8.91;48.20;94739.19;4937300;29;980;-51
2023/04/06 11:39:48;;;;;;;;;;;;;;;8.84;47.56;94737.34;4937284;29;1976;-51
2023/04/06 11:42:20;;;;;;;;;;;;;;;8.79;47.06;94737.84;4937380;29;1034;-51
2023/04/06 11:44:48;;;;;;;;;;;;;;;8.62;47.39;94706.78;4937378;29;1019;-51
2023/04/06 11:47:14;;;;;;;;;;;;;;;9.02;46.41;94745.25;4937294;29;1015;-51
2023/04/06 11:49:41;;;;;;;;;;;;;;;8.97;47.23;94735.91;4936782;29;1115;-51
2023/04/06 11:52:24;;;;;;;;;;;;;;;8.81;47.11;94735.84;4937256;29;959;-51
2023/04/06 11:54:51;;;;;;;;;;;;;;;8.61;46.55;94743.22;4919802;29;1294;-51
2023/04/06 11:57:18;;;;;;;;;;;;;;;8.69;47.82;94729.97;4937136;29;1054;-51
2023/04/06 11:59:44;;;;;;;;;;;;;;;8.88;47.90;94736.03;4904081;29;1912;-51
2023/04/06 12:02:10;;;;;;;;;;;;;;;8.98;48.08;94736.75;4936806;29;1026;-51
2023/04/06 12:04:37;;;;;;;;;;;;;;;8.83;47.67;94730.34;4936719;29;1922;-51
2023/04/06 12:07:03;;;;;;;;;;;;;;;8.84;47.29;94732.88;4936984;29;960;-51
2023/04/06 12:09:31;;;;;;;;;;;;;;;8.90;46.05;94736.72;4948699;29;1216;-51
2023/04/06 12:11:58;;;;;;;;;;;;;;;8.94;46.32;94730.06;4955801;29;1103;-51
2023/04/06 12:14:24;;;;;;;;;;;;;;;9.04;45.61;94738.75;4955946;29;977;-51
2023/04/06 12:16:50;;;;;;;;;;;;;;;9.05;45.80;94739.59;4955767;29;1038;-51
2023/04/06 12:19:16;;;;;;;;;;;;;;;8.80;47.17;94731.50;4955495;29;2075;-51
2023/04/06 12:21:42;;;;;;;;;;;;;;;8.98;47.00;94729.56;4955367;29;1343;-51
2023/04/06 12:24:08;;;;;;;;;;;;;;;9.02;46.04;94727.41;4955772;29;1016;-51
2023/04/06 12:26:35;;;;;;;;;;;;;;;9.12;47.38;94722.78;4955779;29;990;-51
2023/04/06 12:29:09;;;;;;;;;;;;;;;9.14;44.85;94727.94;4955827;29;982;-51
2023/04/06 12:31:35;;;;;;;;;;;;;;;9.38;47.81;94712.00;4955399;28;1035;-51
2023/04/06 12:34:02;;;;;;;;;;;;;;;9.40;46.53;94717.19;4955422;29;1118;-50
2023/04/06 12:36:29;;;;;;;;;;;;;;;9.67;46.00;94725.88;4938080;29;1231;-51
2023/04/06 12:38:55;;;;;;;;;;;;;;;9.49;45.20;94726.88;4955490;29;1914;-50
2023/04/06 12:41:21;;;;;;;;;;;;;;;9.55;45.46;94726.19;4955648;29;979;-51
2023/04/06 12:43:49;;;;;;;;;;;;;;;9.75;45.65;94718.72;4955606;29;1003;-51
2023/04/06 12:46:15;;;;;;;;;;;;;;;9.87;45.36;94724.56;4955531;29;1068;-51
2023/04/06 12:48:41;;;;;;;;;;;;;;;9.77;43.70;94723.91;4955261;29;1002;-51
2023/04/06 12:51:07;;;;;;;;;;;;;;;9.51;45.29;94722.19;4955476;29;959;-52
2023/04/06 12:53:34;;;;;;;;;;;;;;;9.74;45.73;94716.22;4954964;29;1265;-51
2023/04/06 12:56:01;;;;;;;;;;;;;;;9.71;43.36;94713.84;4955364;29;1061;-52
2023/04/06 12:58:28;;;;;;;;;;;;;;;9.82;45.24;94712.69;4955146;29;1074;-52
2023/04/06 13:00:55;;;;;;;;;;;;;;;9.77;44.41;94713.22;4955113;29;1977;-51
2023/04/06 13:03:22;;;;;;;;;;;;;;;9.55;42.71;94715.53;4955053;29;1029;-50
2023/04/06 13:05:49;;;;;;;;;;;;;;;9.56;44.02;94714.53;4955395;29;1014;-50